sensor_id;sensor_type;location;lat;lon;timestamp;pressure;altitude;pressure_sealevel;temperature;humidity
64616;BME280;51027;42.162;24.754;2022-11-15T00:00:05;100503.69;;;6.83;100.00
64616;BME280;51027;42.162;24.754;2022-11-15T00:02:30;100493.13;;;6.92;100.00
64616;BME280;51027;42.162;24.754;2022-11-15T00:04:56;100499.97;;;7.02;100.00
64616;BME280;51027;42.162;24.754;2022-11-15T00:07:21;100503.44;;;7.04;99.76
64616;BME280;51027;42.162;24.754;2022-11-15T00:09:47;100503.47;;;7.01;100.00
64616;BME280;51027;42.162;24.754;2022-11-15T00:12:12;100503.88;;;6.68;100.00
64616;BME280;51027;42.162;24.754;2022-11-15T00:14:40;100493.41;;;6.66;100.00
64616;BME280;51027;42.162;24.754;2022-11-15T00:17:06;100503.94;;;6.58;100.00
64616;BME280;51027;42.162;24.754;2022-11-15T00:19:32;100502.00;;;6.79;100.00
64616;BME280;51027;42.162;24.754;2022-11-15T00:21:58;100486.16;;;6.91;99.99
64616;BME280;51027;42.162;24.754;2022-11-15T00:24:23;100492.22;;;6.96;99.92
64616;BME280;51027;42.162;24.754;2022-11-15T00:26:49;100498.19;;;7.04;99.49
64616;BME280;51027;42.162;24.754;2022-11-15T00:29:15;100497.34;;;7.05;99.38
64616;BME280;51027;42.162;24.754;2022-11-15T00:31:40;100503.81;;;6.72;100.00
64616;BME280;51027;42.162;24.754;2022-11-15T00:34:05;100497.38;;;7.01;99.81
64616;BME280;51027;42.162;24.754;2022-11-15T00:36:33;100501.72;;;7.02;99.44
64616;BME280;51027;42.162;24.754;2022-11-15T00:38:58;100485.19;;;7.00;98.95
64616;BME280;51027;42.162;24.754;2022-11-15T00:41:23;100496.41;;;7.09;98.26
64616;BME280;51027;42.162;24.754;2022-11-15T00:43:49;100486.94;;;6.99;98.41
64616;BME280;51027;42.162;24.754;2022-11-15T00:46:15;100484.25;;;7.02;98.49
64616;BME280;51027;42.162;24.754;2022-11-15T00:48:40;100462.50;;;6.99;98.13
64616;BME280;51027;42.162;24.754;2022-11-15T00:51:06;100483.34;;;7.05;98.14
64616;BME280;51027;42.162;24.754;2022-11-15T00:53:31;100463.41;;;6.96;98.31
64616;BME280;51027;42.162;24.754;2022-11-15T00:55:57;100483.81;;;6.63;100.00
64616;BME280;51027;42.162;24.754;2022-11-15T00:58:23;100471.38;;;6.85;99.99
64616;BME280;51027;42.162;24.754;2022-11-15T01:00:48;100448.56;;;6.93;98.77
64616;BME280;51027;42.162;24.754;2022-11-15T01:03:13;100478.00;;;7.15;98.42
64616;BME280;51027;42.162;24.754;2022-11-15T01:05:40;100480.47;;;7.28;98.10
64616;BME280;51027;42.162;24.754;2022-11-15T01:08:05;100481.31;;;7.30;98.26
64616;BME280;51027;42.162;24.754;2022-11-15T01:10:31;100476.88;;;7.33;97.74
64616;BME280;51027;42.162;24.754;2022-11-15T01:12:57;100474.41;;;7.22;97.43
64616;BME280;51027;42.162;24.754;2022-11-15T01:15:22;100471.69;;;7.30;97.84
64616;BME280;51027;42.162;24.754;2022-11-15T01:17:48;100472.53;;;7.32;97.76
64616;BME280;51027;42.162;24.754;2022-11-15T01:20:13;100472.88;;;7.05;97.40
64616;BME280;51027;42.162;24.754;2022-11-15T01:22:39;100469.84;;;6.68;99.76
64616;BME280;51027;42.162;24.754;2022-11-15T01:25:05;100463.78;;;6.62;100.00
64616;BME280;51027;42.162;24.754;2022-11-15T01:27:30;100465.16;;;6.96;99.44
64616;BME280;51027;42.162;24.754;2022-11-15T01:29:55;100462.34;;;7.11;98.89
64616;BME280;51027;42.162;24.754;2022-11-15T01:32:21;100465.13;;;6.99;99.38
64616;BME280;51027;42.162;24.754;2022-11-15T01:34:46;100464.44;;;6.81;99.63
64616;BME280;51027;42.162;24.754;2022-11-15T01:37:12;100461.59;;;7.00;99.60
64616;BME280;51027;42.162;24.754;2022-11-15T01:39:41;100459.28;;;6.74;100.00
64616;BME280;51027;42.162;24.754;2022-11-15T01:42:12;100458.44;;;6.72;100.00
64616;BME280;51027;42.162;24.754;2022-11-15T01:44:41;100455.69;;;6.82;100.00
64616;BME280;51027;42.162;24.754;2022-11-15T01:52:24;100438.78;;;7.09;99.32
64616;BME280;51027;42.162;24.754;2022-11-15T01:54:53;100450.88;;;7.19;99.11
64616;BME280;51027;42.162;24.754;2022-11-15T01:57:19;100443.91;;;7.18;99.10
64616;BME280;51027;42.162;24.754;2022-11-15T01:59:45;100446.38;;;7.29;98.57
64616;BME280;51027;42.162;24.754;2022-11-15T02:02:11;100445.56;;;7.24;98.60
64616;BME280;51027;42.162;24.754;2022-11-15T02:04:42;100455.91;;;7.35;98.22
64616;BME280;51027;42.162;24.754;2022-11-15T02:07:09;100453.16;;;7.42;98.01
64616;BME280;51027;42.162;24.754;2022-11-15T02:09:37;100449.66;;;7.43;97.46
64616;BME280;51027;42.162;24.754;2022-11-15T02:12:03;100454.78;;;7.53;97.47
64616;BME280;51027;42.162;24.754;2022-11-15T02:14:30;100449.59;;;7.49;97.11
64616;BME280;51027;42.162;24.754;2022-11-15T02:17:27;100454.69;;;7.59;97.15
64616;BME280;51027;42.162;24.754;2022-11-15T02:26:28;100448.63;;;7.55;96.82
64616;BME280;51027;42.162;24.754;2022-11-15T02:29:06;100455.63;;;7.53;96.92
64616;BME280;51027;42.162;24.754;2022-11-15T02:31:51;100443.44;;;7.50;96.64
64616;BME280;51027;42.162;24.754;2022-11-15T02:34:28;100352.56;;;6.94;96.19
64616;BME280;51027;42.162;24.754;2022-11-15T02:42:34;100442.38;;;7.64;95.56
64616;BME280;51027;42.162;24.754;2022-11-15T02:45:24;100441.72;;;7.49;95.93
64616;BME280;51027;42.162;24.754;2022-11-15T02:47:54;100442.94;;;7.26;96.77
64616;BME280;51027;42.162;24.754;2022-11-15T02:50:25;100434.28;;;7.20;96.99
64616;BME280;51027;42.162;24.754;2022-11-15T02:52:51;100434.25;;;7.22;97.30
64616;BME280;51027;42.162;24.754;2022-11-15T03:00:35;100435.75;;;7.40;96.67
64616;BME280;51027;42.162;24.754;2022-11-15T03:09:07;100434.03;;;7.37;96.90
64616;BME280;51027;42.162;24.754;2022-11-15T03:11:41;100434.09;;;7.33;97.26
64616;BME280;51027;42.162;24.754;2022-11-15T03:14:26;100431.44;;;7.36;96.99
64616;BME280;51027;42.162;24.754;2022-11-15T03:17:12;100441.88;;;7.39;97.05
64616;BME280;51027;42.162;24.754;2022-11-15T03:19:45;100436.69;;;7.36;97.14
64616;BME280;51027;42.162;24.754;2022-11-15T03:22:16;100423.66;;;7.30;96.87
64616;BME280;51027;42.162;24.754;2022-11-15T03:24:45;100432.25;;;7.41;96.71
64616;BME280;51027;42.162;24.754;2022-11-15T03:27:15;100432.16;;;7.47;96.37
64616;BME280;51027;42.162;24.754;2022-11-15T03:29:48;100436.53;;;7.46;96.64
64616;BME280;51027;42.162;24.754;2022-11-15T03:32:23;100429.53;;;7.45;96.21
64616;BME280;51027;42.162;24.754;2022-11-15T03:35:05;100425.19;;;7.46;96.48
64616;BME280;51027;42.162;24.754;2022-11-15T03:37:41;100423.47;;;7.42;96.55
64616;BME280;51027;42.162;24.754;2022-11-15T03:40:09;100403.56;;;7.30;96.34
64616;BME280;51027;42.162;24.754;2022-11-15T03:42:51;100403.94;;;7.06;96.59
64616;BME280;51027;42.162;24.754;2022-11-15T03:45:29;100419.38;;;7.26;96.80
64616;BME280;51027;42.162;24.754;2022-11-15T03:48:05;100408.78;;;7.32;96.48
64616;BME280;51027;42.162;24.754;2022-11-15T03:50:35;100406.91;;;7.40;96.39
64616;BME280;51027;42.162;24.754;2022-11-15T03:53:01;100408.69;;;7.39;96.48
64616;BME280;51027;42.162;24.754;2022-11-15T03:55:26;100403.44;;;7.39;95.87
64616;BME280;51027;42.162;24.754;2022-11-15T03:57:55;100409.59;;;7.37;95.72
64616;BME280;51027;42.162;24.754;2022-11-15T04:00:22;100394.78;;;7.36;95.50
64616;BME280;51027;42.162;24.754;2022-11-15T04:02:48;100399.94;;;7.39;95.59
64616;BME280;51027;42.162;24.754;2022-11-15T04:05:13;100400.03;;;7.33;95.70
64616;BME280;51027;42.162;24.754;2022-11-15T04:07:39;100400.88;;;7.35;95.43
64616;BME280;51027;42.162;24.754;2022-11-15T04:10:04;100342.06;;;6.97;95.65
64616;BME280;51027;42.162;24.754;2022-11-15T04:12:35;100393.06;;;7.32;95.71
64616;BME280;51027;42.162;24.754;2022-11-15T04:15:06;100391.50;;;7.18;95.82
64616;BME280;51027;42.162;24.754;2022-11-15T04:17:40;100391.56;;;7.14;96.10
64616;BME280;51027;42.162;24.754;2022-11-15T04:22:58;100380.44;;;7.00;96.07
64616;BME280;51027;42.162;24.754;2022-11-15T04:25:43;100381.22;;;7.06;96.48
64616;BME280;51027;42.162;24.754;2022-11-15T04:28:09;100380.31;;;7.09;96.33
64616;BME280;51027;42.162;24.754;2022-11-15T04:30:35;100373.19;;;7.18;95.62
64616;BME280;51027;42.162;24.754;2022-11-15T04:33:00;100379.28;;;7.19;95.91
64616;BME280;51027;42.162;24.754;2022-11-15T04:35:26;100375.75;;;7.21;95.65
64616;BME280;51027;42.162;24.754;2022-11-15T04:37:52;100378.59;;;7.05;96.68
64616;BME280;51027;42.162;24.754;2022-11-15T04:40:18;100379.44;;;7.08;96.65
64616;BME280;51027;42.162;24.754;2022-11-15T04:42:43;100370.72;;;7.05;96.45
64616;BME280;51027;42.162;24.754;2022-11-15T04:45:12;100380.31;;;7.07;96.67
64616;BME280;51027;42.162;24.754;2022-11-15T04:47:37;100382.09;;;7.05;96.79
64616;BME280;51027;42.162;24.754;2022-11-15T04:50:03;100375.13;;;7.03;96.63
64616;BME280;51027;42.162;24.754;2022-11-15T04:52:29;100382.16;;;7.01;96.30
64616;BME280;51027;42.162;24.754;2022-11-15T04:54:54;100325.91;;;6.63;96.07
64616;BME280;51027;42.162;24.754;2022-11-15T04:57:19;100377.13;;;6.85;96.75
64616;BME280;51027;42.162;24.754;2022-11-15T04:59:46;100377.72;;;7.04;95.96
64616;BME280;51027;42.162;24.754;2022-11-15T05:02:11;100368.09;;;7.08;95.55
64616;BME280;51027;42.162;24.754;2022-11-15T05:04:36;100361.13;;;7.07;95.13
64616;BME280;51027;42.162;24.754;2022-11-15T05:07:02;100373.47;;;6.99;95.33
64616;BME280;51027;42.162;24.754;2022-11-15T05:09:29;100362.38;;;6.78;96.44
64616;BME280;51027;42.162;24.754;2022-11-15T05:11:54;100365.09;;;6.71;97.13
64616;BME280;51027;42.162;24.754;2022-11-15T05:14:20;100370.91;;;6.92;96.68
64616;BME280;51027;42.162;24.754;2022-11-15T05:16:45;100377.72;;;7.07;96.14
64616;BME280;51027;42.162;24.754;2022-11-15T05:19:11;100378.38;;;7.20;95.48
64616;BME280;51027;42.162;24.754;2022-11-15T05:21:37;100382.59;;;7.32;95.11
64616;BME280;51027;42.162;24.754;2022-11-15T05:24:03;100384.25;;;7.37;95.19
64616;BME280;51027;42.162;24.754;2022-11-15T05:26:29;100353.84;;;7.27;94.93
64616;BME280;51027;42.162;24.754;2022-11-15T05:28:55;100380.63;;;7.46;94.56
64616;BME280;51027;42.162;24.754;2022-11-15T05:31:24;100372.66;;;7.52;94.41
64616;BME280;51027;42.162;24.754;2022-11-15T05:33:54;100375.34;;;7.49;94.31
64616;BME280;51027;42.162;24.754;2022-11-15T05:38:54;100379.47;;;7.64;93.76
64616;BME280;51027;42.162;24.754;2022-11-15T05:41:25;100382.13;;;7.61;94.33
64616;BME280;51027;42.162;24.754;2022-11-15T05:43:55;100382.31;;;7.50;94.88
64616;BME280;51027;42.162;24.754;2022-11-15T05:46:20;100332.81;;;7.30;94.82
64616;BME280;51027;42.162;24.754;2022-11-15T05:48:49;100382.94;;;7.64;94.45
64616;BME280;51027;42.162;24.754;2022-11-15T05:51:17;100381.16;;;7.68;94.42
64616;BME280;51027;42.162;24.754;2022-11-15T05:53:45;100388.22;;;7.63;94.49
64616;BME280;51027;42.162;24.754;2022-11-15T05:56:12;100397.91;;;7.59;94.90
64616;BME280;51027;42.162;24.754;2022-11-15T05:58:37;100390.94;;;7.55;95.17
64616;BME280;51027;42.162;24.754;2022-11-15T06:01:04;100373.56;;;7.51;95.03
64616;BME280;51027;42.162;24.754;2022-11-15T06:03:29;100377.00;;;7.53;94.88
64616;BME280;51027;42.162;24.754;2022-11-15T06:05:56;100398.47;;;7.78;94.32
64616;BME280;51027;42.162;24.754;2022-11-15T06:08:21;100396.03;;;7.64;95.13
64616;BME280;51027;42.162;24.754;2022-11-15T06:10:47;100400.41;;;7.65;94.51
64616;BME280;51027;42.162;24.754;2022-11-15T06:13:12;100395.19;;;7.64;92.52
64616;BME280;51027;42.162;24.754;2022-11-15T06:15:38;100399.91;;;7.94;91.73
64616;BME280;51027;42.162;24.754;2022-11-15T06:18:03;100405.22;;;7.91;90.03
64616;BME280;51027;42.162;24.754;2022-11-15T06:20:29;100399.84;;;8.00;90.72
64616;BME280;51027;42.162;24.754;2022-11-15T06:22:59;100393.00;;;7.90;89.28
64616;BME280;51027;42.162;24.754;2022-11-15T06:25:25;100320.03;;;7.64;88.65
64616;BME280;51027;42.162;24.754;2022-11-15T06:27:54;100400.47;;;8.13;88.79
64616;BME280;51027;42.162;24.754;2022-11-15T06:30:21;100401.03;;;8.30;88.26
64616;BME280;51027;42.162;24.754;2022-11-15T06:32:49;100375.66;;;8.31;87.41
64616;BME280;51027;42.162;24.754;2022-11-15T06:35:16;100392.09;;;8.42;86.87
64616;BME280;51027;42.162;24.754;2022-11-15T06:37:42;100391.13;;;8.46;86.56
64616;BME280;51027;42.162;24.754;2022-11-15T06:40:08;100404.94;;;8.56;86.53
64616;BME280;51027;42.162;24.754;2022-11-15T06:42:34;100399.34;;;8.74;85.87
64616;BME280;51027;42.162;24.754;2022-11-15T06:45:00;100405.22;;;8.85;85.31
64616;BME280;51027;42.162;24.754;2022-11-15T06:47:25;100337.09;;;8.36;85.54
64616;BME280;51027;42.162;24.754;2022-11-15T06:49:51;100408.00;;;8.79;85.32
64616;BME280;51027;42.162;24.754;2022-11-15T06:52:16;100406.88;;;8.91;84.54
64616;BME280;51027;42.162;24.754;2022-11-15T06:54:44;100408.25;;;9.07;84.20
64616;BME280;51027;42.162;24.754;2022-11-15T06:57:09;100403.88;;;9.09;83.77
64616;BME280;51027;42.162;24.754;2022-11-15T06:59:35;100397.06;;;8.99;82.08
64616;BME280;51027;42.162;24.754;2022-11-15T07:02:01;100393.97;;;9.20;82.96
64616;BME280;51027;42.162;24.754;2022-11-15T07:04:26;100383.56;;;8.74;81.25
64616;BME280;51027;42.162;24.754;2022-11-15T07:06:52;100395.09;;;8.67;83.19
64616;BME280;51027;42.162;24.754;2022-11-15T07:09:17;100390.28;;;8.87;82.88
64616;BME280;51027;42.162;24.754;2022-11-15T07:11:42;100389.22;;;8.54;83.19
64616;BME280;51027;42.162;24.754;2022-11-15T07:14:08;100383.34;;;8.85;83.02
64616;BME280;51027;42.162;24.754;2022-11-15T07:16:34;100386.66;;;9.33;81.65
64616;BME280;51027;42.162;24.754;2022-11-15T07:19:01;100385.31;;;9.54;80.26
64616;BME280;51027;42.162;24.754;2022-11-15T07:21:26;100389.22;;;9.36;80.79
64616;BME280;51027;42.162;24.754;2022-11-15T07:23:52;100379.41;;;9.44;81.04
64616;BME280;51027;42.162;24.754;2022-11-15T07:26:17;100381.09;;;9.82;79.41
64616;BME280;51027;42.162;24.754;2022-11-15T07:28:42;100380.50;;;10.05;78.04
64616;BME280;51027;42.162;24.754;2022-11-15T07:31:08;100373.84;;;10.57;76.55
64616;BME280;51027;42.162;24.754;2022-11-15T07:33:34;100382.22;;;10.42;76.31
64616;BME280;51027;42.162;24.754;2022-11-15T07:36:05;100380.69;;;10.64;75.66
64616;BME280;51027;42.162;24.754;2022-11-15T07:38:31;100374.91;;;11.11;72.24
64616;BME280;51027;42.162;24.754;2022-11-15T07:41:01;100373.63;;;11.52;70.25
64616;BME280;51027;42.162;24.754;2022-11-15T07:43:27;100355.81;;;11.04;71.24
64616;BME280;51027;42.162;24.754;2022-11-15T07:45:53;100371.19;;;12.00;69.60
64616;BME280;51027;42.162;24.754;2022-11-15T07:48:18;100369.88;;;11.31;71.60
64616;BME280;51027;42.162;24.754;2022-11-15T07:50:44;100377.66;;;11.08;71.58
64616;BME280;51027;42.162;24.754;2022-11-15T07:53:10;100365.28;;;11.38;71.52
64616;BME280;51027;42.162;24.754;2022-11-15T07:55:36;100374.06;;;11.93;69.43
64616;BME280;51027;42.162;24.754;2022-11-15T07:58:07;100368.84;;;11.91;69.16
64616;BME280;51027;42.162;24.754;2022-11-15T08:00:34;100368.00;;;13.34;64.98
64616;BME280;51027;42.162;24.754;2022-11-15T08:03:11;100365.22;;;15.56;56.58
64616;BME280;51027;42.162;24.754;2022-11-15T08:05:38;100368.34;;;15.10;55.12
64616;BME280;51027;42.162;24.754;2022-11-15T08:08:04;100356.78;;;15.84;53.88
64616;BME280;51027;42.162;24.754;2022-11-15T08:10:30;100361.78;;;15.91;53.28
64616;BME280;51027;42.162;24.754;2022-11-15T08:13:00;100357.69;;;15.47;53.77
64616;BME280;51027;42.162;24.754;2022-11-15T08:15:27;100357.06;;;16.30;50.52
64616;BME280;51027;42.162;24.754;2022-11-15T08:17:57;100351.09;;;18.02;47.12
64616;BME280;51027;42.162;24.754;2022-11-15T08:20:27;100355.44;;;19.60;42.45
64616;BME280;51027;42.162;24.754;2022-11-15T08:22:59;100345.63;;;20.00;42.04
64616;BME280;51027;42.162;24.754;2022-11-15T08:25:25;100353.66;;;21.27;38.93
64616;BME280;51027;42.162;24.754;2022-11-15T08:27:56;100337.88;;;20.73;39.63
64616;BME280;51027;42.162;24.754;2022-11-15T08:30:23;100351.22;;;17.84;44.66
64616;BME280;51027;42.162;24.754;2022-11-15T08:32:50;100345.31;;;18.09;44.71
64616;BME280;51027;42.162;24.754;2022-11-15T08:35:16;100349.81;;;19.50;42.42
64616;BME280;51027;42.162;24.754;2022-11-15T08:37:41;100338.16;;;18.10;44.77
64616;BME280;51027;42.162;24.754;2022-11-15T08:40:07;100341.88;;;20.02;41.68
64616;BME280;51027;42.162;24.754;2022-11-15T08:42:33;100343.84;;;22.10;37.56
64616;BME280;51027;42.162;24.754;2022-11-15T08:44:58;100344.03;;;16.08;49.66
64616;BME280;51027;42.162;24.754;2022-11-15T08:47:24;100272.34;;;15.02;51.77
64616;BME280;51027;42.162;24.754;2022-11-15T08:49:49;100347.59;;;13.14;59.53
64616;BME280;51027;42.162;24.754;2022-11-15T08:52:15;100311.53;;;14.18;58.12
64616;BME280;51027;42.162;24.754;2022-11-15T08:54:41;100332.06;;;14.54;57.76
64616;BME280;51027;42.162;24.754;2022-11-15T08:57:06;100321.63;;;14.10;58.70
64616;BME280;51027;42.162;24.754;2022-11-15T08:59:32;100328.78;;;13.66;60.75
64616;BME280;51027;42.162;24.754;2022-11-15T09:01:57;100328.28;;;12.67;66.31
64616;BME280;51027;42.162;24.754;2022-11-15T09:04:23;100315.50;;;13.45;64.37
64616;BME280;51027;42.162;24.754;2022-11-15T09:06:48;100318.50;;;13.58;63.55
64616;BME280;51027;42.162;24.754;2022-11-15T09:09:14;100259.31;;;13.17;64.42
64616;BME280;51027;42.162;24.754;2022-11-15T09:11:39;100303.41;;;16.39;55.56
64616;BME280;51027;42.162;24.754;2022-11-15T09:14:10;100299.16;;;17.79;51.31
64616;BME280;51027;42.162;24.754;2022-11-15T09:16:36;100290.22;;;17.94;50.56
64616;BME280;51027;42.162;24.754;2022-11-15T09:19:01;100277.03;;;16.19;55.25
64616;BME280;51027;42.162;24.754;2022-11-15T09:21:29;100284.56;;;14.87;59.70
64616;BME280;51027;42.162;24.754;2022-11-15T09:23:55;100274.09;;;14.65;60.53
64616;BME280;51027;42.162;24.754;2022-11-15T09:26:21;100258.66;;;15.64;58.54
64616;BME280;51027;42.162;24.754;2022-11-15T09:28:47;100273.50;;;18.49;49.91
64616;BME280;51027;42.162;24.754;2022-11-15T09:31:12;100257.56;;;20.73;44.51
64616;BME280;51027;42.162;24.754;2022-11-15T09:33:38;100265.31;;;20.14;44.92
64616;BME280;51027;42.162;24.754;2022-11-15T09:36:06;100265.09;;;19.52;47.00
64616;BME280;51027;42.162;24.754;2022-11-15T09:38:32;100258.38;;;17.01;52.78
64616;BME280;51027;42.162;24.754;2022-11-15T09:41:32;100250.28;;;15.54;57.92
64616;BME280;51027;42.162;24.754;2022-11-15T09:44:05;100252.75;;;15.40;58.31
64616;BME280;51027;42.162;24.754;2022-11-15T09:49:18;100247.13;;;16.96;54.86
64616;BME280;51027;42.162;24.754;2022-11-15T09:51:45;100239.75;;;16.85;54.48
64616;BME280;51027;42.162;24.754;2022-11-15T09:54:32;100246.31;;;16.47;55.85
64616;BME280;51027;42.162;24.754;2022-11-15T09:57:09;100216.38;;;15.60;58.62
64616;BME280;51027;42.162;24.754;2022-11-15T10:02:33;100233.34;;;19.20;48.60
64616;BME280;51027;42.162;24.754;2022-11-15T10:05:09;100220.00;;;20.75;44.23
64616;BME280;51027;42.162;24.754;2022-11-15T10:08:06;100223.94;;;20.69;44.09
64616;BME280;51027;42.162;24.754;2022-11-15T10:10:43;100218.88;;;19.77;46.29
64616;BME280;51027;42.162;24.754;2022-11-15T10:13:23;100215.56;;;19.34;46.77
64616;BME280;51027;42.162;24.754;2022-11-15T10:15:50;100202.91;;;23.79;38.45
64616;BME280;51027;42.162;24.754;2022-11-15T10:18:47;100194.94;;;21.59;41.36
64616;BME280;51027;42.162;24.754;2022-11-15T10:21:20;100198.63;;;18.66;47.39
64616;BME280;51027;42.162;24.754;2022-11-15T10:23:48;100189.16;;;17.91;49.99
64616;BME280;51027;42.162;24.754;2022-11-15T10:26:16;100184.22;;;19.63;46.52
64616;BME280;51027;42.162;24.754;2022-11-15T10:28:42;100192.97;;;18.01;48.92
64616;BME280;51027;42.162;24.754;2022-11-15T10:31:26;100184.16;;;18.70;47.58
64616;BME280;51027;42.162;24.754;2022-11-15T10:34:11;100186.84;;;17.11;51.62
64616;BME280;51027;42.162;24.754;2022-11-15T10:36:37;100183.09;;;16.52;53.26
64616;BME280;51027;42.162;24.754;2022-11-15T10:39:03;100179.75;;;16.48;53.27
64616;BME280;51027;42.162;24.754;2022-11-15T10:44:11;100145.03;;;20.25;44.07
64616;BME280;51027;42.162;24.754;2022-11-15T10:46:42;100160.31;;;20.36;44.48
64616;BME280;51027;42.162;24.754;2022-11-15T10:49:31;100157.34;;;18.17;48.80
64616;BME280;51027;42.162;24.754;2022-11-15T10:51:58;100154.38;;;17.20;51.56
64616;BME280;51027;42.162;24.754;2022-11-15T10:54:29;100151.03;;;16.86;52.56
64616;BME280;51027;42.162;24.754;2022-11-15T10:57:03;100150.19;;;16.86;52.80
64616;BME280;51027;42.162;24.754;2022-11-15T10:59:32;100143.72;;;16.74;53.60
64616;BME280;51027;42.162;24.754;2022-11-15T11:01:59;100147.25;;;16.59;53.33
64616;BME280;51027;42.162;24.754;2022-11-15T11:04:25;100131.19;;;17.36;50.92
64616;BME280;51027;42.162;24.754;2022-11-15T11:06:56;100133.19;;;17.33;51.54
64616;BME280;51027;42.162;24.754;2022-11-15T11:09:42;100125.72;;;16.32;52.88
64616;BME280;51027;42.162;24.754;2022-11-15T11:12:11;100128.94;;;15.74;54.24
64616;BME280;51027;42.162;24.754;2022-11-15T11:14:38;100118.25;;;16.07;54.68
64616;BME280;51027;42.162;24.754;2022-11-15T11:27:56;100102.03;;;15.12;59.24
64616;BME280;51027;42.162;24.754;2022-11-15T11:34:16;100084.94;;;15.01;59.25
64616;BME280;51027;42.162;24.754;2022-11-15T11:50:50;100069.44;;;14.93;58.96
64616;BME280;51027;42.162;24.754;2022-11-15T11:53:39;100070.97;;;15.14;58.42
64616;BME280;51027;42.162;24.754;2022-11-15T11:56:17;100064.81;;;15.14;58.71
64616;BME280;51027;42.162;24.754;2022-11-15T11:58:45;100058.19;;;14.88;57.95
64616;BME280;51027;42.162;24.754;2022-11-15T12:01:23;100055.63;;;15.04;57.92
64616;BME280;51027;42.162;24.754;2022-11-15T12:03:55;100058.50;;;14.82;59.22
64616;BME280;51027;42.162;24.754;2022-11-15T12:06:38;100047.19;;;14.95;58.91
64616;BME280;51027;42.162;24.754;2022-11-15T12:12:01;100043.28;;;14.68;59.23
64616;BME280;51027;42.162;24.754;2022-11-15T12:17:09;100032.53;;;15.06;58.56
64616;BME280;51027;42.162;24.754;2022-11-15T12:19:36;100023.81;;;14.52;59.79
64616;BME280;51027;42.162;24.754;2022-11-15T12:22:12;100030.97;;;14.84;59.31
64616;BME280;51027;42.162;24.754;2022-11-15T12:25:03;100019.03;;;14.76;59.62
64616;BME280;51027;42.162;24.754;2022-11-15T12:27:43;100019.50;;;14.49;60.20
64616;BME280;51027;42.162;24.754;2022-11-15T12:30:17;100020.88;;;14.91;58.70
64616;BME280;51027;42.162;24.754;2022-11-15T12:32:55;100011.25;;;14.73;59.13
64616;BME280;51027;42.162;24.754;2022-11-15T12:35:34;100014.50;;;14.78;59.80
64616;BME280;51027;42.162;24.754;2022-11-15T12:38:00;100011.94;;;14.93;58.39
64616;BME280;51027;42.162;24.754;2022-11-15T12:40:28;100013.97;;;15.21;58.36
64616;BME280;51027;42.162;24.754;2022-11-15T12:45:40;99993.31;;;14.78;58.36
64616;BME280;51027;42.162;24.754;2022-11-15T12:58:56;99984.91;;;14.52;59.72
64616;BME280;51027;42.162;24.754;2022-11-15T13:07:01;99979.09;;;14.96;58.62
64616;BME280;51027;42.162;24.754;2022-11-15T13:11:56;99952.94;;;14.55;58.66
64616;BME280;51027;42.162;24.754;2022-11-15T13:14:39;99971.97;;;15.14;57.85
64616;BME280;51027;42.162;24.754;2022-11-15T13:17:35;99968.94;;;15.53;56.80
64616;BME280;51027;42.162;24.754;2022-11-15T13:22:38;99965.81;;;14.63;60.20
64616;BME280;51027;42.162;24.754;2022-11-15T13:30:36;99959.06;;;14.21;61.64
64616;BME280;51027;42.162;24.754;2022-11-15T13:33:13;99948.91;;;14.12;61.93
64616;BME280;51027;42.162;24.754;2022-11-15T13:35:41;99954.38;;;14.44;61.37
64616;BME280;51027;42.162;24.754;2022-11-15T13:38:18;99949.50;;;14.53;61.42
64616;BME280;51027;42.162;24.754;2022-11-15T13:40:44;99934.81;;;14.29;61.41
64616;BME280;51027;42.162;24.754;2022-11-15T13:46:05;99958.66;;;14.11;62.51
64616;BME280;51027;42.162;24.754;2022-11-15T13:48:31;99953.34;;;14.11;62.67
64616;BME280;51027;42.162;24.754;2022-11-15T13:50:59;99950.22;;;14.03;63.54
64616;BME280;51027;42.162;24.754;2022-11-15T13:53:25;99933.69;;;13.81;63.94
64616;BME280;51027;42.162;24.754;2022-11-15T13:55:51;99932.25;;;13.74;63.88
64616;BME280;51027;42.162;24.754;2022-11-15T13:58:19;99923.38;;;13.75;64.28
64616;BME280;51027;42.162;24.754;2022-11-15T14:00:45;99939.34;;;13.54;64.48
64616;BME280;51027;42.162;24.754;2022-11-15T14:06:03;99939.16;;;13.59;65.61
64616;BME280;51027;42.162;24.754;2022-11-15T14:08:31;99938.22;;;13.41;65.00
64616;BME280;51027;42.162;24.754;2022-11-15T14:11:19;99908.66;;;13.13;66.27
64616;BME280;51027;42.162;24.754;2022-11-15T14:16:35;99930.59;;;13.15;66.86
64616;BME280;51027;42.162;24.754;2022-11-15T14:19:03;99934.16;;;13.14;67.30
64616;BME280;51027;42.162;24.754;2022-11-15T14:21:29;99938.56;;;12.94;67.83
64616;BME280;51027;42.162;24.754;2022-11-15T14:24:17;99936.50;;;13.01;68.10
64616;BME280;51027;42.162;24.754;2022-11-15T14:26:43;99928.00;;;12.94;68.37
64616;BME280;51027;42.162;24.754;2022-11-15T14:29:25;99936.41;;;12.84;68.80
64616;BME280;51027;42.162;24.754;2022-11-15T14:32:05;99931.81;;;12.48;70.56
64616;BME280;51027;42.162;24.754;2022-11-15T14:34:36;99928.81;;;12.56;70.38
64616;BME280;51027;42.162;24.754;2022-11-15T14:37:02;99932.22;;;12.39;71.27
64616;BME280;51027;42.162;24.754;2022-11-15T14:39:27;99934.72;;;12.42;71.48
64616;BME280;51027;42.162;24.754;2022-11-15T14:41:53;99932.28;;;12.17;72.41
64616;BME280;51027;42.162;24.754;2022-11-15T14:44:19;99926.53;;;12.28;72.35
64616;BME280;51027;42.162;24.754;2022-11-15T14:46:45;99907.09;;;12.08;72.66
64616;BME280;51027;42.162;24.754;2022-11-15T14:49:11;99926.53;;;11.86;74.10